Time;durP1;ratioP1;P1;durP2;ratioP2;P2;SDS_P1;SDS_P2;PMS_P1;PMS_P2;Temp;Humidity;BMP_temperature;BMP_pressure;BME280_temperature;BME280_humidity;BME280_pressure;Samples;Min_cycle;Max_cycle;Signal;HPM_P1;HPM_P2
2022/01/24 00:01:36;;;;;;;37.87;18.73;;;;;;;-3.00;100.00;101392.65;1727234;82;21041;-69
2022/01/24 00:04:04;;;;;;;36.87;16.87;;;;;;;-2.98;100.00;101396.94;1684369;84;21073;-69
2022/01/24 00:06:33;;;;;;;43.20;18.83;;;;;;;-3.02;100.00;101397.67;1675730;84;21173;-69
2022/01/24 00:09:03;;;;;;;39.53;17.63;;;;;;;-3.04;100.00;101396.78;1733013;82;21073;-69
2022/01/24 00:11:44;;;;;;;42.17;18.53;;;;;;;-3.00;100.00;101396.42;1666436;85;21572;-69
2022/01/24 00:27:14;;;;;;;36.13;17.33;;;;;;;-2.93;100.00;101390.33;1728186;82;21081;-69
2022/01/24 00:29:41;;;;;;;35.80;16.50;;;;;;;-2.97;100.00;101389.81;1732928;82;21038;-69
2022/01/24 00:32:10;;;;;;;40.27;17.13;;;;;;;-2.98;100.00;101370.48;1669007;85;21061;-69
2022/01/24 00:34:37;;;;;;;37.57;16.77;;;;;;;-2.92;100.00;101383.62;1665152;85;21163;-69
2022/01/24 00:37:06;;;;;;;36.80;17.70;;;;;;;-2.94;100.00;101374.79;1726040;82;21028;-69
2022/01/24 00:39:33;;;;;;;35.90;16.10;;;;;;;-2.97;100.00;101379.73;1726245;82;21182;-69
2022/01/24 00:42:17;;;;;;;39.40;17.67;;;;;;;-2.92;100.00;101373.16;1726755;83;21187;-69
2022/01/24 00:44:46;;;;;;;39.23;17.27;;;;;;;-2.93;100.00;101371.85;1723804;82;21037;-70
2022/01/24 00:47:12;;;;;;;33.13;16.70;;;;;;;-2.94;100.00;101382.34;1668366;84;21053;-69
2022/01/24 00:49:52;;;;;;;32.43;15.97;;;;;;;-2.90;100.00;101373.17;1752653;80;21017;-69
2022/01/24 00:55:02;;;;;;;32.17;15.67;;;;;;;-2.88;100.00;101379.10;1747905;80;21066;-69
2022/01/24 00:57:29;;;;;;;34.90;17.63;;;;;;;-2.92;100.00;101374.80;1742493;81;20997;-68
2022/01/24 00:59:56;;;;;;;36.57;17.50;;;;;;;-2.90;100.00;101387.03;1733677;81;21466;-69
2022/01/24 01:02:23;;;;;;;38.47;17.50;;;;;;;-2.91;100.00;101390.38;1754581;80;21008;-69
2022/01/24 01:18:18;;;;;;;34.47;15.53;;;;;;;-2.89;100.00;101380.77;1749907;81;21509;-69
2022/01/24 01:23:37;;;;;;;31.67;15.00;;;;;;;-3.00;100.00;101373.75;1747894;80;21575;-69
2022/01/24 01:26:08;;;;;;;37.47;15.43;;;;;;;-2.94;100.00;101397.46;1668886;85;21104;-69
2022/01/24 01:28:35;;;;;;;36.57;15.27;;;;;;;-2.95;100.00;101388.18;1729785;83;21517;-69
2022/01/24 01:31:08;;;;;;;34.53;14.97;;;;;;;-2.93;100.00;101390.33;1725271;83;21583;-69
2022/01/24 01:33:48;;;;;;;30.93;15.30;;;;;;;-2.96;100.00;101391.53;1728759;83;21092;-70
2022/01/24 01:36:13;;;;;;;32.67;16.60;;;;;;;-2.94;100.00;101381.47;1726087;82;21058;-69
2022/01/24 01:54:55;;;;;;;28.80;13.93;;;;;;;-2.83;100.00;101397.72;1609062;85;21025;-69
2022/01/24 01:57:22;;;;;;;33.00;16.33;;;;;;;-2.90;100.00;101397.11;1730592;83;21045;-69
2022/01/24 01:59:50;;;;;;;30.73;14.97;;;;;;;-2.87;100.00;101379.14;1664765;85;21600;-69
2022/01/24 02:02:17;;;;;;;36.10;15.90;;;;;;;-2.85;100.00;101386.75;1683174;85;21053;-69
2022/01/24 02:04:44;;;;;;;31.80;15.37;;;;;;;-2.84;100.00;101387.18;1689364;84;21532;-69
2022/01/24 02:07:13;;;;;;;32.90;15.67;;;;;;;-2.78;100.00;101391.11;1743316;80;21040;-69
2022/01/24 02:09:45;;;;;;;34.33;16.80;;;;;;;-2.82;100.00;101396.89;1752685;80;21063;-69
2022/01/24 02:12:13;;;;;;;37.13;17.13;;;;;;;-2.77;100.00;101389.47;1670426;85;21548;-69
2022/01/24 02:14:47;;;;;;;33.13;15.93;;;;;;;-2.79;100.00;101392.36;1681179;85;21603;-69
2022/01/24 02:17:15;;;;;;;38.00;15.97;;;;;;;-2.71;100.00;101387.09;1686942;85;21052;-69
2022/01/24 02:24:57;;;;;;;35.67;15.67;;;;;;;-2.76;100.00;101393.67;1727524;82;21052;-69
2022/01/24 02:27:27;;;;;;;36.17;15.70;;;;;;;-2.74;100.00;101391.63;1741573;81;21044;-70
2022/01/24 02:32:42;;;;;;;35.97;15.57;;;;;;;-2.75;100.00;101395.40;1744217;81;21095;-69
2022/01/24 02:35:10;;;;;;;34.67;15.57;;;;;;;-2.76;100.00;101397.45;1732157;81;21033;-70
2022/01/24 02:37:37;;;;;;;30.37;15.27;;;;;;;-2.76;100.00;101391.16;1724847;82;21068;-69
2022/01/24 02:40:12;;;;;;;32.47;14.90;;;;;;;-2.78;100.00;101392.37;1729643;83;21533;-70
2022/01/24 02:48:28;;;;;;;38.30;17.03;;;;;;;-2.76;100.00;101388.22;1734247;82;21057;-70
2022/01/24 02:53:46;;;;;;;36.50;16.27;;;;;;;-2.74;100.00;101389.53;1728468;82;21099;-70
2022/01/24 02:56:15;;;;;;;30.90;15.20;;;;;;;-2.74;100.00;101395.41;1671972;84;21112;-70
2022/01/24 02:58:42;;;;;;;34.03;16.30;;;;;;;-2.83;100.00;101387.64;1663307;83;21096;-69
2022/01/24 03:01:09;;;;;;;31.00;15.23;;;;;;;-2.84;100.00;101396.00;1727332;82;21065;-70
2022/01/24 03:03:37;;;;;;;32.27;14.80;;;;;;;-2.79;100.00;101388.58;1729250;82;21106;-70
2022/01/24 03:06:07;;;;;;;35.10;16.07;;;;;;;-2.84;100.00;101384.66;1685250;84;21083;-70
2022/01/24 03:08:37;;;;;;;32.83;15.53;;;;;;;-2.83;100.00;101393.53;1669330;83;21539;-70
2022/01/24 03:11:04;;;;;;;34.77;16.47;;;;;;;-2.82;100.00;101390.59;1684002;85;21040;-71
2022/01/24 03:13:32;;;;;;;30.63;14.70;;;;;;;-2.87;100.00;101387.13;1687905;85;21485;-70
2022/01/24 03:16:03;;;;;;;35.23;16.63;;;;;;;-2.82;100.00;101388.07;1687784;85;21005;-70
2022/01/24 03:18:31;;;;;;;34.07;16.20;;;;;;;-2.80;100.00;101383.92;1668618;84;21025;-70
2022/01/24 03:21:01;;;;;;;31.73;15.27;;;;;;;-2.82;100.00;101380.13;1732139;82;21036;-70
2022/01/24 03:23:28;;;;;;;35.30;16.10;;;;;;;-2.82;100.00;101391.84;1661043;85;21063;-70
2022/01/24 03:25:56;;;;;;;32.77;14.80;;;;;;;-2.79;100.00;101394.88;1727901;83;21025;-70
2022/01/24 03:28:24;;;;;;;35.13;16.73;;;;;;;-2.87;100.00;101391.74;1685983;84;21084;-71
2022/01/24 03:30:52;;;;;;;37.13;16.20;;;;;;;-2.85;100.00;101405.65;1722632;83;21608;-70
2022/01/24 03:33:22;;;;;;;30.00;14.70;;;;;;;-2.85;100.00;101395.16;1729120;82;21009;-70
2022/01/24 03:35:49;;;;;;;33.47;15.67;;;;;;;-2.86;100.00;101410.22;1730152;82;21025;-71
2022/01/24 03:38:16;;;;;;;30.47;14.10;;;;;;;-2.87;100.00;101407.28;1728486;82;21086;-71
2022/01/24 03:40:43;;;;;;;33.23;15.93;;;;;;;-2.94;100.00;101410.44;1667600;84;21057;-71
2022/01/24 03:43:12;;;;;;;33.47;15.40;;;;;;;-2.86;100.00;101403.92;1724398;82;21572;-71
2022/01/24 03:45:46;;;;;;;30.20;15.17;;;;;;;-2.99;100.00;101428.38;1728947;82;21090;-70
2022/01/24 03:48:38;;;;;;;28.87;15.10;;;;;;;-2.97;100.00;101401.56;1675932;85;21092;-71
2022/01/24 03:50:55;;;;;;;34.48;15.68;;;;;;;-2.91;100.00;101418.09;1687645;85;21083;-71
2022/01/24 03:53:22;;;;;;;36.03;16.87;;;;;;;-2.93;100.00;101411.75;1729605;83;21523;-71
2022/01/24 03:55:50;;;;;;;30.23;14.57;;;;;;;-2.95;100.00;101411.27;1731602;82;21523;-71
2022/01/24 03:58:18;;;;;;;32.70;16.00;;;;;;;-3.00;100.00;101415.32;1687739;84;21064;-71
2022/01/24 04:00:45;;;;;;;32.53;15.43;;;;;;;-2.91;100.00;101406.75;1724277;82;21554;-71
2022/01/24 04:03:14;;;;;;;31.33;14.90;;;;;;;-3.00;100.00;101422.88;1729670;83;21540;-71
2022/01/24 04:05:42;;;;;;;32.67;15.93;;;;;;;-3.04;100.00;101417.78;1725789;83;21041;-71
2022/01/24 04:08:10;;;;;;;32.57;14.57;;;;;;;-3.05;100.00;101423.61;1734149;82;21040;-71
2022/01/24 04:10:48;;;;;;;35.10;15.00;;;;;;;-3.09;100.00;101432.31;1737125;82;21092;-71
2022/01/24 04:13:32;;;;;;;32.03;15.17;;;;;;;-3.10;100.00;101437.77;1677458;85;21182;-71
2022/01/24 04:16:52;;;;;;;28.63;13.77;;;;;;;-3.06;100.00;101428.22;1727958;83;21029;-71
2022/01/24 04:21:26;;;;;;;34.13;16.27;;;;;;;-3.12;100.00;101450.72;1734441;82;21052;-71
2022/01/24 04:24:00;;;;;;;;;;;;;;;-3.04;100.00;101443.37;1730260;83;21023;-71
2022/01/24 04:26:23;;;;;;;26.73;12.70;;;;;;;-3.11;100.00;101451.16;1725297;83;20130;-71
2022/01/24 04:28:50;;;;;;;29.40;14.07;;;;;;;-3.16;100.00;101448.93;1727019;82;21533;-71
2022/01/24 04:31:18;;;;;;;30.40;14.00;;;;;;;-3.13;100.00;101464.11;1729031;82;21053;-71
2022/01/24 04:33:46;;;;;;;33.57;16.03;;;;;;;-3.13;100.00;101446.48;1703237;83;21059;-70
2022/01/24 04:36:13;;;;;;;27.57;14.00;;;;;;;-3.13;100.00;101447.73;1721729;83;21080;-71
2022/01/24 04:38:40;;;;;;;32.20;14.93;;;;;;;-3.22;100.00;101456.32;1723314;82;21549;-71
2022/01/24 04:41:16;;;;;;;28.47;14.77;;;;;;;-3.19;100.00;101466.88;1725743;82;21126;-71
2022/01/24 04:43:55;;;;;;;32.07;14.93;;;;;;;-3.17;100.00;101465.25;1727141;82;21014;-72
2022/01/24 04:46:45;;;;;;;31.97;15.00;;;;;;;-3.21;100.00;101466.83;1666699;84;21049;-71
2022/01/24 04:57:03;;;;;;;28.80;14.33;;;;;;;-3.25;100.00;101471.33;1675161;84;21044;-71
2022/01/24 04:59:31;;;;;;;31.77;15.17;;;;;;;-3.27;100.00;101471.28;1736298;81;21174;-71
2022/01/24 05:01:58;;;;;;;33.20;15.77;;;;;;;-3.25;100.00;101475.10;1676646;83;21056;-71
2022/01/24 05:04:25;;;;;;;31.13;15.87;;;;;;;-3.25;100.00;101470.06;1665433;84;21093;-71
2022/01/24 05:06:54;;;;;;;36.23;17.10;;;;;;;-3.20;100.00;101466.41;1726164;83;21088;-72
2022/01/24 05:09:22;;;;;;;38.73;16.47;;;;;;;-3.20;100.00;101482.40;1729633;83;21068;-72
2022/01/24 05:11:55;;;;;;;32.17;15.67;;;;;;;-3.23;100.00;101476.00;1729288;83;21077;-71
2022/01/24 05:25:23;;;;;;;32.43;15.20;;;;;;;-3.27;100.00;101480.50;1727292;82;20992;-71
2022/01/24 05:27:50;;;;;;;32.73;15.33;;;;;;;-3.23;100.00;101481.03;1731491;83;21068;-72
2022/01/24 05:30:19;;;;;;;34.53;15.67;;;;;;;-3.33;100.00;101492.50;1722106;83;21037;-71
2022/01/24 05:32:46;;;;;;;35.47;16.57;;;;;;;-3.29;100.00;101502.27;1728977;82;21100;-71
2022/01/24 05:35:14;;;;;;;32.13;15.43;;;;;;;-3.30;100.00;101504.35;1734141;82;21072;-71
2022/01/24 05:37:41;;;;;;;33.23;14.90;;;;;;;-3.33;100.00;101517.68;1728349;82;21058;-71
2022/01/24 05:40:10;;;;;;;35.93;15.40;;;;;;;-3.31;100.00;101511.03;1729691;82;21132;-71
2022/01/24 05:42:37;;;;;;;35.50;16.07;;;;;;;-3.32;100.00;101509.75;1727593;82;21117;-71
2022/01/24 05:45:07;;;;;;;28.17;14.47;;;;;;;-3.28;100.00;101506.51;1680615;84;21084;-72
2022/01/24 05:47:34;;;;;;;27.97;14.13;;;;;;;-3.30;100.00;101522.82;1669144;84;21048;-71
2022/01/24 05:50:03;;;;;;;30.47;14.33;;;;;;;-3.30;100.00;101520.30;1727911;82;21063;-71
2022/01/24 05:52:32;;;;;;;27.97;13.63;;;;;;;-3.29;100.00;101523.67;1730208;82;21041;-72
2022/01/24 05:54:59;;;;;;;30.90;14.40;;;;;;;-3.26;100.00;101522.52;1726689;82;21041;-71
2022/01/24 05:57:26;;;;;;;31.10;15.30;;;;;;;-3.24;100.00;101536.00;1729992;82;21049;-71
2022/01/24 05:59:54;;;;;;;33.13;14.57;;;;;;;-3.26;100.00;101534.69;1727040;82;21525;-72
2022/01/24 06:02:23;;;;;;;29.33;13.83;;;;;;;-3.29;100.00;101543.81;1684754;85;21095;-72
2022/01/24 06:04:50;;;;;;;30.10;15.07;;;;;;;-3.26;100.00;101535.10;1680173;84;21052;-72
2022/01/24 06:07:17;;;;;;;34.27;14.70;;;;;;;-3.18;100.00;101535.30;1731306;83;21098;-72
2022/01/24 06:09:45;;;;;;;30.10;14.73;;;;;;;-3.23;100.00;101540.21;1727210;82;21076;-72
2022/01/24 06:12:12;;;;;;;28.37;14.13;;;;;;;-3.27;100.00;101539.67;1728499;82;21079;-72
2022/01/24 06:14:41;;;;;;;27.90;14.13;;;;;;;-3.22;100.00;101538.16;1731873;82;21099;-72
2022/01/24 06:17:10;;;;;;;34.13;16.00;;;;;;;-3.20;100.00;101534.40;1733707;82;21056;-72
2022/01/24 06:19:37;;;;;;;35.27;14.97;;;;;;;-3.18;100.00;101541.59;1728089;82;21044;-72
2022/01/24 06:22:04;;;;;;;30.20;13.97;;;;;;;-3.14;100.00;101537.09;1683085;83;21084;-72
2022/01/24 06:24:32;;;;;;;34.23;16.37;;;;;;;-3.13;100.00;101538.81;1728632;82;21037;-71
2022/01/24 06:26:59;;;;;;;32.97;14.53;;;;;;;-3.10;100.00;101542.66;1746839;80;21516;-72
2022/01/24 06:29:26;;;;;;;25.53;12.70;;;;;;;-3.10;100.00;101545.19;1748061;81;21114;-72
2022/01/24 06:31:53;;;;;;;30.10;14.23;;;;;;;-3.12;100.00;101543.91;1741927;81;21033;-72
2022/01/24 06:34:22;;;;;;;27.17;13.03;;;;;;;-3.10;100.00;101541.03;1751685;81;21080;-72
2022/01/24 06:36:49;;;;;;;33.67;14.40;;;;;;;-3.16;100.00;101533.67;1746790;81;21024;-72
2022/01/24 06:39:16;;;;;;;28.77;14.43;;;;;;;-3.04;100.00;101532.38;1737574;82;21044;-72
2022/01/24 06:41:50;;;;;;;29.20;14.07;;;;;;;-3.02;100.00;101538.31;1745039;80;21675;-72
2022/01/24 06:44:12;;;;;;;32.37;14.77;;;;;;;-2.87;100.00;101535.77;1741420;82;21028;-72
2022/01/24 06:46:39;;;;;;;27.90;13.70;;;;;;;-2.80;100.00;101530.07;1751884;81;21020;-73
2022/01/24 06:49:09;;;;;;;26.10;13.03;;;;;;;-2.74;100.00;101544.09;1750065;80;21853;-72
2022/01/24 06:51:35;;;;;;;26.97;13.00;;;;;;;-2.75;100.00;101536.10;1741425;81;21043;-72
2022/01/24 06:54:03;;;;;;;24.17;11.53;;;;;;;-2.84;100.00;101540.50;1741976;81;21065;-73
2022/01/24 06:56:30;;;;;;;24.60;12.10;;;;;;;-2.88;100.00;101537.83;1750542;81;21073;-72
2022/01/24 06:58:57;;;;;;;25.47;13.33;;;;;;;-2.94;100.00;101538.53;1738906;80;21029;-72
2022/01/24 07:01:24;;;;;;;25.40;12.53;;;;;;;-2.84;100.00;101535.84;1704759;83;21031;-72
2022/01/24 07:03:51;;;;;;;26.00;12.40;;;;;;;-2.78;100.00;101534.75;1702082;83;20993;-73
2022/01/24 07:06:18;;;;;;;24.03;11.67;;;;;;;-2.80;100.00;101540.56;1711419;82;21039;-72
2022/01/24 07:08:46;;;;;;;27.47;12.87;;;;;;;-2.77;100.00;101559.15;1716405;83;21033;-73
2022/01/24 07:11:14;;;;;;;25.00;12.73;;;;;;;-2.83;100.00;101546.38;1704884;82;21052;-73
2022/01/24 07:13:42;;;;;;;24.97;12.20;;;;;;;-2.71;100.00;101547.97;1708578;82;21087;-73
2022/01/24 07:16:09;;;;;;;25.30;12.60;;;;;;;-2.76;100.00;101544.88;1715493;82;21033;-73
2022/01/24 07:18:58;;;;;;;25.00;12.90;;;;;;;-2.80;100.00;101538.05;1718396;82;21095;-73
2022/01/24 07:21:07;;;;;;;24.13;12.60;;;;;;;-2.75;100.00;101546.19;1720219;82;21084;-72
2022/01/24 07:23:34;;;;;;;27.03;12.43;;;;;;;-2.76;100.00;101546.98;1698362;83;21054;-73
2022/01/24 07:26:01;;;;;;;26.67;13.53;;;;;;;-2.72;100.00;101552.55;1734156;80;21004;-73
2022/01/24 07:28:28;;;;;;;32.40;13.43;;;;;;;-2.68;100.00;101546.78;1729278;81;21011;-73
2022/01/24 07:30:56;;;;;;;26.27;13.10;;;;;;;-2.60;100.00;101551.19;1756946;81;21047;-72
2022/01/24 07:33:23;;;;;;;32.03;12.90;;;;;;;-2.58;100.00;101558.38;1744098;81;21059;-73
2022/01/24 07:35:50;;;;;;;24.70;13.23;;;;;;;-2.45;100.00;101553.70;1743484;80;21023;-73
2022/01/24 07:38:17;;;;;;;25.00;12.70;;;;;;;-2.63;100.00;101562.05;1744703;81;21035;-74
2022/01/24 07:40:47;;;;;;;29.17;14.00;;;;;;;-2.53;100.00;101566.94;1676528;85;21159;-73
2022/01/24 07:43:13;;;;;;;31.43;13.40;;;;;;;-2.56;100.00;101563.91;1679690;85;21540;-73
2022/01/24 07:45:44;;;;;;;26.17;12.13;;;;;;;-2.48;100.00;101564.95;1679799;84;21064;-73
2022/01/24 07:48:15;;;;;;;25.20;13.00;;;;;;;-2.42;100.00;101570.58;1739474;82;21044;-73
2022/01/24 07:50:46;;;;;;;30.53;13.43;;;;;;;-2.44;100.00;101560.44;1749245;81;21053;-73
2022/01/24 07:53:15;;;;;;;24.40;12.13;;;;;;;-2.32;100.00;101563.69;1752263;81;21512;-73
2022/01/24 07:55:45;;;;;;;29.63;13.43;;;;;;;-2.25;100.00;101568.09;1739839;80;21045;-72
2022/01/24 07:58:12;;;;;;;25.40;12.83;;;;;;;-2.28;100.00;101560.44;1751807;81;21072;-72
2022/01/24 08:00:39;;;;;;;25.67;12.53;;;;;;;-2.29;100.00;101566.69;1745743;81;21053;-72
2022/01/24 08:03:08;;;;;;;25.83;12.73;;;;;;;-2.33;100.00;101571.21;1742871;81;21023;-72
2022/01/24 08:05:37;;;;;;;23.93;12.03;;;;;;;-2.42;100.00;101582.77;1743661;81;21622;-72
2022/01/24 08:08:06;;;;;;;22.97;11.63;;;;;;;-2.34;100.00;101578.34;1753138;82;21689;-71
2022/01/24 08:10:34;;;;;;;27.57;12.87;;;;;;;-2.40;100.00;101588.27;1752851;80;21072;-71
2022/01/24 08:13:02;;;;;;;22.87;13.03;;;;;;;-2.32;100.00;101590.17;1755008;81;21019;-72
2022/01/24 08:15:30;;;;;;;25.57;12.27;;;;;;;-2.14;100.00;101589.80;1751828;80;21104;-71
2022/01/24 08:17:57;;;;;;;27.43;12.83;;;;;;;-2.13;100.00;101593.17;1740187;81;21020;-68
2022/01/24 08:20:26;;;;;;;26.03;13.50;;;;;;;-2.06;100.00;101583.27;1736233;81;21867;-69
2022/01/24 08:22:53;;;;;;;28.57;13.73;;;;;;;-1.94;100.00;101590.30;1724918;81;21043;-69
2022/01/24 08:25:21;;;;;;;27.23;13.60;;;;;;;-1.82;100.00;101578.39;1744642;80;21040;-69
2022/01/24 08:27:48;;;;;;;26.80;12.87;;;;;;;-1.79;100.00;101580.13;1749037;80;21044;-69
2022/01/24 08:30:19;;;;;;;28.77;13.37;;;;;;;-1.81;100.00;101591.02;1747415;82;21044;-69
2022/01/24 08:32:48;;;;;;;25.13;12.77;;;;;;;-1.78;100.00;101581.81;1736463;81;21048;-69
2022/01/24 08:35:19;;;;;;;28.93;13.20;;;;;;;-1.72;100.00;101582.00;1745949;81;21044;-69
2022/01/24 08:37:47;;;;;;;26.83;13.10;;;;;;;-1.78;100.00;101584.34;1741671;81;21036;-69
2022/01/24 08:40:24;;;;;;;22.70;12.50;;;;;;;-1.73;100.00;101588.69;1743475;81;21067;-69
2022/01/24 08:42:57;;;;;;;22.90;12.60;;;;;;;-1.77;100.00;101581.02;1750141;81;21508;-69
2022/01/24 08:48:11;;;;;;;24.07;12.30;;;;;;;-1.58;100.00;101586.95;1741861;81;21465;-69
2022/01/24 08:50:39;;;;;;;23.77;11.90;;;;;;;-1.75;100.00;101578.97;1741240;81;21298;-68
2022/01/24 08:53:06;;;;;;;26.37;13.60;;;;;;;-1.77;100.00;101577.23;1744486;81;21052;-68
2022/01/24 08:55:35;;;;;;;29.73;12.90;;;;;;;-1.67;100.00;101578.73;1751744;82;21564;-68
2022/01/24 08:58:05;;;;;;;24.63;12.40;;;;;;;-1.74;100.00;101587.00;1743191;81;21036;-69
2022/01/24 09:00:34;;;;;;;29.10;12.93;;;;;;;-1.59;100.00;101578.08;1742983;81;21012;-69
2022/01/24 09:03:00;;;;;;;29.63;13.30;;;;;;;-1.61;100.00;101577.61;1741067;81;20996;-69
2022/01/24 09:05:34;;;;;;;28.87;14.73;;;;;;;-1.56;100.00;101572.70;1733143;82;21024;-69
2022/01/24 09:07:58;;;;;;;28.23;14.70;;;;;;;-1.52;100.00;101570.69;1743738;81;21523;-68
2022/01/24 09:10:26;;;;;;;32.23;15.10;;;;;;;-1.26;100.00;101570.38;1735620;81;21056;-68
2022/01/24 09:12:53;;;;;;;32.90;14.60;;;;;;;-1.26;100.00;101568.73;1747788;81;21036;-69
2022/01/24 09:15:20;;;;;;;25.68;13.45;;;;;;;-1.06;100.00;101561.96;1743689;81;21544;-69
2022/01/24 09:17:48;;;;;;;28.27;14.37;;;;;;;-0.98;100.00;101560.86;1750123;82;21044;-69
2022/01/24 09:20:15;;;;;;;31.93;15.05;;;;;;;-0.93;100.00;101558.87;1744223;81;21025;-69
2022/01/24 09:22:45;;;;;;;26.47;13.47;;;;;;;-0.72;100.00;101547.05;1734887;82;21091;-69
2022/01/24 09:25:15;;;;;;;27.15;13.75;;;;;;;-0.85;100.00;101560.30;1723490;81;21541;-69
2022/01/24 09:27:43;;;;;;;28.17;14.00;;;;;;;-0.90;100.00;101560.61;1748801;81;21067;-69
2022/01/24 09:30:14;;;;;;;23.73;12.68;;;;;;;-0.96;100.00;101552.90;1751796;82;21028;-70
2022/01/24 09:32:41;;;;;;;28.70;14.18;;;;;;;-0.99;100.00;101561.67;1738027;81;21035;-69
2022/01/24 09:35:11;;;;;;;29.60;14.83;;;;;;;-0.88;100.00;101566.55;1740250;80;21027;-69
2022/01/24 09:37:41;;;;;;;30.90;14.93;;;;;;;-0.70;100.00;101572.37;1738450;81;21032;-69
2022/01/24 09:40:13;;;;;;;27.25;14.03;;;;;;;-0.73;100.00;101572.30;1733971;81;21551;-70
2022/01/24 09:42:39;;;;;;;28.70;13.93;;;;;;;-0.79;100.00;101570.53;1745775;80;21068;-69
2022/01/24 09:45:08;;;;;;;27.60;13.55;;;;;;;-1.04;100.00;101567.91;1736859;81;21087;-70
2022/01/24 09:47:36;;;;;;;25.97;12.60;;;;;;;-1.09;100.00;101580.45;1747465;81;21571;-70
2022/01/24 09:50:10;;;;;;;26.82;13.13;;;;;;;-1.04;100.00;101567.91;1735942;81;21556;-70
2022/01/24 09:52:40;;;;;;;23.60;11.35;;;;;;;-0.93;100.00;101572.78;1747157;81;21523;-70
2022/01/24 09:55:09;;;;;;;26.57;12.98;;;;;;;-1.08;100.00;101570.77;1743859;82;21062;-70
2022/01/24 09:57:37;;;;;;;22.58;12.03;;;;;;;-1.03;100.00;101564.15;1741089;81;20983;-70
2022/01/24 10:00:12;;;;;;;27.32;12.58;;;;;;;-0.96;100.00;101560.06;1723320;81;21111;-70
2022/01/24 10:02:40;;;;;;;24.18;12.30;;;;;;;-0.89;100.00;101580.86;1745787;81;21524;-70
2022/01/24 10:05:37;;;;;;;26.10;12.88;;;;;;;-1.04;100.00;101573.80;1741301;82;21067;-71
2022/01/24 10:08:18;;;;;;;29.10;14.43;;;;;;;-1.08;100.00;101560.66;1716140;82;21122;-70
2022/01/24 10:10:59;;;;;;;26.33;13.48;;;;;;;-0.86;100.00;101565.74;1742168;81;21062;-70
2022/01/24 10:16:43;;;;;;;24.00;12.43;;;;;;;-0.68;100.00;101566.94;1748974;81;21023;-70
2022/01/24 10:19:19;;;;;;;24.50;11.30;;;;;;;-0.69;100.00;101568.63;1734171;81;21594;-71
2022/01/24 10:21:57;;;;;;;22.93;11.30;;;;;;;-0.78;100.00;101563.80;1753528;81;21079;-70
2022/01/24 10:24:41;;;;;;;20.75;11.10;;;;;;;-0.92;100.00;101559.30;1748386;81;21575;-69
2022/01/24 10:27:19;;;;;;;22.70;11.15;;;;;;;-0.95;100.00;101563.44;1745621;81;21028;-70
2022/01/24 10:29:59;;;;;;;25.90;12.18;;;;;;;-0.91;100.00;101559.77;1728135;81;21033;-69
2022/01/24 10:32:40;;;;;;;23.00;11.88;;;;;;;-0.81;100.00;101564.17;1753520;81;21063;-70
2022/01/24 10:35:32;;;;;;;23.45;11.25;;;;;;;-0.95;100.00;101558.38;1743871;81;20993;-70
2022/01/24 10:38:52;;;;;;;20.57;11.18;;;;;;;-0.83;100.00;101553.17;1731541;81;21536;-70
2022/01/24 10:41:23;;;;;;;24.00;11.68;;;;;;;-0.71;100.00;101560.16;1749926;81;21044;-70
2022/01/24 10:43:52;;;;;;;20.48;10.43;;;;;;;-0.79;100.00;101547.78;1730984;81;21567;-69
2022/01/24 10:46:26;;;;;;;21.00;10.98;;;;;;;-0.80;100.00;101547.32;1742017;80;21011;-69
2022/01/24 10:49:06;;;;;;;;;;;;;;;-0.89;100.00;101545.86;1729787;81;21058;-70
2022/01/24 10:51:46;;;;;;;20.62;11.50;;;;;;;-0.78;100.00;101543.15;1751155;81;20374;-72
2022/01/24 10:54:17;;;;;;;19.82;9.48;;;;;;;-0.60;100.00;101543.91;1746832;82;20996;-71
2022/01/24 10:56:46;;;;;;;21.12;10.60;;;;;;;-0.62;100.00;101540.08;1717376;82;21036;-70
2022/01/24 10:59:24;;;;;;;19.95;10.20;;;;;;;-0.68;100.00;101547.97;1725506;81;21515;-70
2022/01/24 11:01:54;;;;;;;17.75;9.18;;;;;;;-0.69;100.00;101545.86;1747968;81;21701;-70
2022/01/24 11:04:24;;;;;;;17.75;9.95;;;;;;;-0.66;100.00;101553.49;1734850;81;21543;-70
2022/01/24 11:06:55;;;;;;;17.75;9.45;;;;;;;-0.58;100.00;101551.53;1726332;81;21055;-71
2022/01/24 11:09:28;;;;;;;21.50;10.58;;;;;;;-0.47;100.00;101547.50;1750300;82;21544;-70
2022/01/24 11:12:10;;;;;;;20.15;10.53;;;;;;;-0.55;100.00;101545.25;1721338;81;21115;-70
2022/01/24 11:14:43;;;;;;;20.95;10.50;;;;;;;-0.48;100.00;101547.08;1743145;81;21032;-71
2022/01/24 11:17:19;;;;;;;19.42;10.78;;;;;;;-0.45;100.00;101541.64;1744241;82;21075;-70
2022/01/24 11:19:51;;;;;;;22.17;10.60;;;;;;;-0.45;100.00;101541.64;1745337;81;21028;-71
2022/01/24 11:22:21;;;;;;;21.27;9.28;;;;;;;-0.40;100.00;101543.01;1739671;81;21107;-70
2022/01/24 11:24:58;;;;;;;18.80;9.50;;;;;;;-0.47;100.00;101545.81;1737027;81;21578;-71
2022/01/24 11:27:26;;;;;;;18.82;9.50;;;;;;;-0.55;100.00;101544.83;1751825;80;21040;-71
2022/01/24 11:29:58;;;;;;;19.10;9.70;;;;;;;-0.77;100.00;101545.25;1749590;81;20996;-71
2022/01/24 11:32:51;;;;;;;17.17;8.63;;;;;;;-0.73;100.00;101545.75;1741711;80;21119;-71
2022/01/24 11:35:45;;;;;;;18.65;9.65;;;;;;;-0.80;100.00;101542.27;1743107;81;21083;-71
2022/01/24 11:38:42;;;;;;;15.35;8.83;;;;;;;-0.81;100.00;101539.31;1739617;82;21087;-71
2022/01/24 11:41:25;;;;;;;17.98;9.23;;;;;;;-0.85;100.00;101552.30;1753304;80;21032;-71
2022/01/24 11:43:56;;;;;;;16.95;8.13;;;;;;;-0.98;100.00;101546.96;1680133;84;21016;-71
2022/01/24 11:46:48;;;;;;;20.97;8.55;;;;;;;-0.99;100.00;101541.45;1691422;83;21048;-71
2022/01/24 11:49:28;;;;;;;15.95;8.25;;;;;;;-0.95;100.00;101550.80;1736640;81;21637;-71
2022/01/24 11:52:18;;;;;;;18.92;8.65;;;;;;;-1.04;100.00;101550.21;1684281;81;21044;-71
2022/01/24 11:54:53;;;;;;;15.88;8.28;;;;;;;-0.99;100.00;101551.56;1672247;84;21031;-71
2022/01/24 11:57:34;;;;;;;16.30;8.38;;;;;;;-0.95;100.00;101551.67;1716258;83;21091;-71
2022/01/24 12:00:10;;;;;;;19.50;8.80;;;;;;;-0.87;100.00;101551.84;1706944;83;21010;-71
2022/01/24 12:02:44;;;;;;;20.43;9.93;;;;;;;-0.90;100.00;101550.08;1716127;82;21005;-70
2022/01/24 12:05:20;;;;;;;22.45;10.40;;;;;;;-0.93;100.00;101545.36;1681362;84;21044;-72
2022/01/24 12:07:55;;;;;;;21.75;10.72;;;;;;;-0.97;100.00;101541.95;1703703;82;21043;-71
2022/01/24 12:10:36;;;;;;;20.25;10.68;;;;;;;-0.95;100.00;101546.62;1685514;82;21516;-71
2022/01/24 12:13:26;;;;;;;21.23;11.00;;;;;;;-0.95;100.00;101544.48;1679923;83;21442;-71
2022/01/24 12:15:54;;;;;;;22.57;12.00;;;;;;;-0.79;100.00;101549.05;1665542;84;21531;-71
2022/01/24 12:18:33;;;;;;;21.95;11.33;;;;;;;-0.68;100.00;101552.61;1705284;82;21488;-71
2022/01/24 12:21:23;;;;;;;26.07;12.05;;;;;;;-0.52;100.00;101557.55;1739436;81;21498;-71
2022/01/24 12:23:58;;;;;;;20.27;10.60;;;;;;;-0.44;100.00;101557.69;1740474;80;21034;-71
2022/01/24 12:26:42;;;;;;;19.75;10.93;;;;;;;-0.58;100.00;101553.64;1719445;81;20992;-71
2022/01/24 12:29:16;;;;;;;22.10;11.65;;;;;;;-0.79;100.00;101560.80;1738399;81;21075;-71
2022/01/24 12:31:53;;;;;;;20.90;10.38;;;;;;;-0.79;100.00;101560.80;1728817;81;21034;-72
2022/01/24 12:34:39;;;;;;;22.75;10.88;;;;;;;-0.85;100.00;101564.94;1739114;81;21541;-71
2022/01/24 12:37:25;;;;;;;19.25;9.53;;;;;;;-0.75;100.00;101564.71;1682595;83;21038;-73
2022/01/24 12:40:07;;;;;;;19.90;9.00;;;;;;;-0.92;100.00;101566.04;1716296;82;21028;-71
2022/01/24 12:42:46;;;;;;;16.75;8.25;;;;;;;-1.00;100.00;101555.77;1699948;83;21059;-72
2022/01/24 12:48:12;;;;;;;15.80;7.10;;;;;;;-1.29;100.00;101552.65;1706283;83;21481;-72
2022/01/24 12:50:47;;;;;;;;;;;;;;;-1.35;100.00;101546.20;1704096;83;21558;-72
2022/01/24 12:53:15;;;;;;;;;;;;;;;-1.35;100.00;101555.05;1679870;84;20144;-72
2022/01/24 12:55:44;;;;;;;15.73;7.67;;;;;;;-1.37;100.00;101550.38;1686159;84;20171;-72
2022/01/24 12:58:11;;;;;;;15.87;7.37;;;;;;;-1.48;100.00;101549.73;1695579;83;21049;-72